createdAt,value
2019-04-14T00:03:43.909Z,39.10
2019-04-14T00:08:47.842Z,39.77
2019-04-14T00:13:50.396Z,41.80
2019-04-14T00:18:53.408Z,41.93
2019-04-14T00:23:56.619Z,44.27
2019-04-14T00:29:00.078Z,44.60
2019-04-14T00:34:05.154Z,41.10
2019-04-14T00:39:22.651Z,46.07
2019-04-14T00:44:38.779Z,44.43
2019-04-14T00:49:41.871Z,44.13
2019-04-14T00:54:45.418Z,43.77
2019-04-14T00:59:48.739Z,45.97
2019-04-14T01:04:51.397Z,45.73
2019-04-14T01:09:53.788Z,46.97
2019-04-14T01:14:56.081Z,47.03
2019-04-14T01:19:59.290Z,52.83
2019-04-14T01:25:02.337Z,47.50
2019-04-14T01:30:08.732Z,49.77
2019-04-14T01:35:11.748Z,48.92
2019-04-14T01:40:14.235Z,50.67
2019-04-14T01:45:18.607Z,52.93
2019-04-14T01:50:23.439Z,45.50
2019-04-14T01:55:28.710Z,48.50
2019-04-14T02:00:45.123Z,49.60
2019-04-14T02:05:47.543Z,51.67
2019-04-14T02:10:49.978Z,49.97
2019-04-14T02:15:52.845Z,48.70
2019-04-14T02:20:55.747Z,50.23
2019-04-14T02:25:58.125Z,53.67
2019-04-14T02:31:13.428Z,50.63
2019-04-14T02:36:36.246Z,47.87
2019-04-14T02:41:35.906Z,50.50
2019-04-14T02:51:40.090Z,47.00
2019-04-14T02:56:43.548Z,43.87
2019-04-14T03:02:10.425Z,47.43
2019-04-14T03:06:56.350Z,45.23
2019-04-14T03:22:25.985Z,45.80
2019-04-14T03:27:22.725Z,46.67
2019-04-14T03:32:49.614Z,44.57
2019-04-14T03:52:53.283Z,45.17
2019-04-14T03:57:29.644Z,46.07
2019-04-14T04:02:33.762Z,44.47
2019-04-14T04:07:36.754Z,46.13
2019-04-14T04:12:39.974Z,42.23
2019-04-14T04:17:47.388Z,44.33
2019-04-14T04:28:14.484Z,43.30
2019-04-14T04:33:19.642Z,42.67
2019-04-14T04:38:29.903Z,42.97
2019-04-14T04:43:32.199Z,43.20
2019-04-14T04:48:35.026Z,41.77
2019-04-14T04:53:39.761Z,41.60
2019-04-14T04:58:43.429Z,42.37
2019-04-14T05:03:47.145Z,43.03
2019-04-14T05:08:52.241Z,43.63
2019-04-14T05:13:56.237Z,45.10
2019-04-14T05:19:12.276Z,45.47
2019-04-14T05:24:02.874Z,43.97
2019-04-14T05:29:05.709Z,43.37
2019-04-14T05:34:08.655Z,38.97
2019-04-14T05:39:11.508Z,42.80
2019-04-14T05:44:14.582Z,42.07
2019-04-14T05:49:28.623Z,46.17
2019-04-14T05:54:20.894Z,42.85
2019-04-14T05:59:24.177Z,43.47
2019-04-14T06:04:26.747Z,44.63
2019-04-14T06:09:29.319Z,44.87
2019-04-14T06:14:31.894Z,48.67
2019-04-14T06:19:38.081Z,50.53
2019-04-14T06:24:38.561Z,46.77
2019-04-14T06:29:40.868Z,46.83
2019-04-14T06:34:53.875Z,52.53
2019-04-14T06:40:00.389Z,47.33
2019-04-14T06:45:02.825Z,48.38
2019-04-14T06:50:05.809Z,49.93
2019-04-14T06:55:08.149Z,49.90
2019-04-14T07:00:10.704Z,50.00
2019-04-14T07:05:12.966Z,48.20
2019-04-14T07:10:15.379Z,47.13
2019-04-14T07:15:17.646Z,49.17
2019-04-14T07:20:19.945Z,47.00
2019-04-14T07:25:22.246Z,44.80
2019-04-14T07:30:26.890Z,46.33
2019-04-14T07:35:47.175Z,48.93
2019-04-14T07:40:51.085Z,48.27
2019-04-14T07:45:55.029Z,47.27
2019-04-14T07:51:15.698Z,50.40
2019-04-14T07:56:22.313Z,49.47
2019-04-14T08:01:28.899Z,51.08
2019-04-14T08:11:33.496Z,47.17
2019-04-14T08:16:35.824Z,48.93
2019-04-14T08:21:38.155Z,48.68
2019-04-14T08:26:40.565Z,46.77
2019-04-14T08:31:43.146Z,47.70
2019-04-14T08:36:45.445Z,52.90
2019-04-14T08:41:55.214Z,48.77
2019-04-14T08:47:17.621Z,53.23
2019-04-14T08:52:24.006Z,47.07
2019-04-14T08:57:27.242Z,48.73
2019-04-14T09:02:31.546Z,45.70
2019-04-14T09:07:38.489Z,46.80
2019-04-14T09:12:42.489Z,48.65
2019-04-14T09:17:44.911Z,47.97
2019-04-14T09:22:47.217Z,44.83
2019-04-14T09:27:49.523Z,44.80
2019-04-14T09:32:51.925Z,39.67
2019-04-14T09:37:54.265Z,43.43
2019-04-14T09:42:57.818Z,47.27
2019-04-14T09:48:00.304Z,46.00
2019-04-14T09:53:02.575Z,44.80
2019-04-14T09:58:04.848Z,46.90
2019-04-14T10:03:07.681Z,46.83
2019-04-14T10:08:10.235Z,43.97
2019-04-14T10:13:12.784Z,46.90
2019-04-14T10:18:15.116Z,46.47
2019-04-14T10:23:17.414Z,44.03
2019-04-14T10:28:19.731Z,44.70
2019-04-14T10:33:22.035Z,45.07
2019-04-14T10:38:24.386Z,44.00
2019-04-14T10:43:26.820Z,43.70
2019-04-14T10:48:29.326Z,43.07
2019-04-14T10:53:31.685Z,41.97
2019-04-14T10:58:34.163Z,37.97
2019-04-14T11:03:36.736Z,42.50
2019-04-14T11:08:39.405Z,39.83
2019-04-14T11:13:41.771Z,40.33
2019-04-14T11:18:46.079Z,39.57
2019-04-14T11:23:48.287Z,39.40
2019-04-14T11:28:50.620Z,46.30
2019-04-14T11:34:03.724Z,45.97
2019-04-14T11:39:07.828Z,43.93
2019-04-14T11:44:10.829Z,37.83
2019-04-14T11:49:13.208Z,39.40
2019-04-14T11:54:15.500Z,39.63
2019-04-14T11:59:19.498Z,39.37
2019-04-14T12:04:23.456Z,40.50
2019-04-14T12:09:30.454Z,41.80
2019-04-14T12:19:34.388Z,39.47
2019-04-14T12:24:36.726Z,37.67
2019-04-14T12:29:39.109Z,39.07
2019-04-14T12:34:41.498Z,38.27
2019-04-14T12:39:43.873Z,39.37
2019-04-14T12:44:47.804Z,40.33
2019-04-14T12:49:51.813Z,38.30
2019-04-14T12:54:54.145Z,38.30
2019-04-14T12:59:56.430Z,35.60
2019-04-14T13:04:58.808Z,34.23
2019-04-14T13:10:01.074Z,41.97
2019-04-14T13:15:04.564Z,40.87
2019-04-14T13:20:07.558Z,52.07
2019-04-14T13:25:09.952Z,47.53
2019-04-14T13:30:14.339Z,30.07
2019-04-14T13:35:16.774Z,31.27
2019-04-14T13:40:19.424Z,32.30
2019-04-14T13:45:21.810Z,27.33
2019-04-14T13:50:24.153Z,26.07
2019-04-14T13:55:26.503Z,26.53
2019-04-14T14:00:28.935Z,23.93
2019-04-14T14:05:31.367Z,25.53
2019-04-14T14:10:33.800Z,23.67
2019-04-14T14:15:54.274Z,23.17
2019-04-14T14:20:58.249Z,19.93
2019-04-14T14:26:02.235Z,28.07
2019-04-14T14:31:04.623Z,26.27
2019-04-14T14:36:06.989Z,22.43
2019-04-14T14:41:11.010Z,20.50
2019-04-14T14:46:17.738Z,20.60
2019-04-14T14:56:26.309Z,21.67
2019-04-14T15:01:28.679Z,21.53
2019-04-14T15:06:30.988Z,21.90
2019-04-14T15:11:33.730Z,34.93
2019-04-14T15:16:36.209Z,19.43
2019-04-14T15:21:38.870Z,21.23
2019-04-14T15:26:41.375Z,22.17
2019-04-14T15:31:43.662Z,21.27
2019-04-14T15:36:45.989Z,18.90
2019-04-14T15:41:48.304Z,23.53
2019-04-14T15:46:50.670Z,23.83
2019-04-14T15:51:53.054Z,19.37
2019-04-14T15:56:57.323Z,18.83
2019-04-14T16:02:01.272Z,18.87
2019-04-14T16:07:11.070Z,24.57
2019-04-14T16:12:15.035Z,39.17
2019-04-14T16:17:21.778Z,21.50
2019-04-14T16:22:24.622Z,22.95
2019-04-14T16:27:37.789Z,21.57
2019-04-14T16:32:57.885Z,19.87
2019-04-14T16:38:00.239Z,19.87
2019-04-14T16:43:02.532Z,21.78
2019-04-14T16:48:04.897Z,25.00
2019-04-14T16:53:18.030Z,25.13
2019-04-14T16:58:25.088Z,21.57
2019-04-14T17:03:27.434Z,22.00
2019-04-14T17:08:29.878Z,22.57
2019-04-14T17:13:33.972Z,20.50
2019-04-14T17:18:44.080Z,22.07
2019-04-14T17:24:02.364Z,23.17
2019-04-14T17:29:14.748Z,25.33
2019-04-14T17:34:35.075Z,25.77
2019-04-14T17:39:57.154Z,27.70
2019-04-14T17:45:01.176Z,26.93
2019-04-14T17:50:08.908Z,25.70
2019-04-14T17:55:29.639Z,32.97
2019-04-14T18:00:49.036Z,27.27
2019-04-14T18:05:53.032Z,24.37
2019-04-14T18:11:09.125Z,23.37
2019-04-14T18:16:19.094Z,25.68
2019-04-14T18:21:21.775Z,22.37
2019-04-14T18:26:24.079Z,20.57
2019-04-14T18:31:30.722Z,31.17
2019-04-14T18:36:37.234Z,24.80
2019-04-14T18:41:44.340Z,23.95
2019-04-14T18:47:04.646Z,24.77
2019-04-14T18:52:17.261Z,26.53
2019-04-14T18:57:24.280Z,23.03
2019-04-14T19:02:26.931Z,21.50
2019-04-14T19:07:29.992Z,23.20
2019-04-14T19:12:33.953Z,23.20
2019-04-14T19:17:37.908Z,22.23
2019-04-14T19:22:40.220Z,23.13
2019-04-14T19:27:44.355Z,21.30
2019-04-14T19:32:46.763Z,22.80
2019-04-14T19:37:49.509Z,23.53
2019-04-14T19:42:52.275Z,20.82
2019-04-14T19:47:54.606Z,22.20
2019-04-14T19:52:57.029Z,22.00
2019-04-14T19:57:59.365Z,21.87
2019-04-14T20:03:01.859Z,25.53
2019-04-14T20:08:04.338Z,22.13
2019-04-14T20:13:06.908Z,21.77
2019-04-14T20:18:25.780Z,19.20
2019-04-14T20:23:32.354Z,18.43
2019-04-14T20:28:36.432Z,18.80
2019-04-14T20:33:38.990Z,19.50
2019-04-14T20:38:41.889Z,26.63
2019-04-14T20:43:44.276Z,18.37
2019-04-14T20:48:46.755Z,16.03
2019-04-14T20:53:49.268Z,15.53
2019-04-14T20:58:52.240Z,15.07
2019-04-14T21:03:59.067Z,14.97
2019-04-14T21:09:09.274Z,15.83
2019-04-14T21:14:19.122Z,15.70
2019-04-14T21:19:32.113Z,11.23
2019-04-14T21:24:54.304Z,12.30
2019-04-14T21:30:04.026Z,13.33
2019-04-14T21:35:11.039Z,14.43
2019-04-14T21:40:27.273Z,14.00
2019-04-14T21:45:29.593Z,14.27
2019-04-14T21:50:31.927Z,14.30
2019-04-14T21:55:34.548Z,13.95
2019-04-14T22:01:05.735Z,13.43
2019-04-14T22:06:12.557Z,13.77
2019-04-14T22:11:27.923Z,12.78
2019-04-14T22:16:30.195Z,11.07
2019-04-14T22:21:32.605Z,15.20
2019-04-14T22:26:34.985Z,12.80
2019-04-14T22:31:37.277Z,15.23
2019-04-14T22:36:39.628Z,11.20
2019-04-14T22:41:41.960Z,11.03
2019-04-14T22:46:44.748Z,14.20
2019-04-14T22:51:47.110Z,13.80
2019-04-14T22:56:49.412Z,13.00
2019-04-14T23:01:53.697Z,10.87
2019-04-14T23:07:15.320Z,11.70
2019-04-14T23:12:19.290Z,40.93
2019-04-14T23:17:23.215Z,14.33
2019-04-14T23:22:27.396Z,14.73
2019-04-14T23:27:29.762Z,43.47
2019-04-14T23:32:32.127Z,17.13
2019-04-14T23:37:34.438Z,14.83
2019-04-14T23:42:36.872Z,15.13
2019-04-14T23:47:39.213Z,17.20
2019-04-14T23:52:41.480Z,16.27
2019-04-14T23:57:43.840Z,15.40
